createdAt,value
2023-04-22T00:00:40.252Z,31.45
2023-04-22T00:01:40.269Z,31.47
2023-04-22T00:02:40.393Z,31.44
2023-04-22T00:03:40.441Z,31.45
2023-04-22T00:04:40.387Z,31.41
2023-04-22T00:05:40.273Z,31.46
2023-04-22T00:06:40.241Z,31.44
2023-04-22T00:07:40.243Z,31.41
2023-04-22T00:08:40.271Z,31.40
2023-04-22T00:09:40.508Z,31.40
2023-04-22T00:10:40.258Z,31.37
2023-04-22T00:11:40.241Z,31.38
2023-04-22T00:12:40.250Z,31.44
2023-04-22T00:13:40.279Z,31.39
2023-04-22T00:14:40.264Z,31.42
2023-04-22T00:15:40.306Z,31.39
2023-04-22T00:16:40.487Z,31.42
2023-04-22T00:17:40.334Z,31.41
2023-04-22T00:18:40.291Z,31.41
2023-04-22T00:19:40.611Z,31.40
2023-04-22T00:20:40.261Z,31.39
2023-04-22T00:21:40.255Z,31.43
2023-04-22T00:22:40.270Z,31.44
2023-04-22T00:23:40.278Z,31.44
2023-04-22T00:24:40.285Z,31.43
2023-04-22T00:25:40.303Z,31.42
2023-04-22T00:26:40.320Z,31.43
2023-04-22T00:27:40.315Z,31.40
2023-04-22T00:28:40.318Z,31.42
2023-04-22T00:29:40.608Z,31.40
2023-04-22T00:30:40.322Z,31.35
2023-04-22T00:31:40.366Z,31.41
2023-04-22T00:32:40.391Z,31.44
2023-04-22T00:33:40.360Z,31.44
2023-04-22T00:34:40.366Z,31.43
2023-04-22T00:35:40.368Z,31.45
2023-04-22T00:36:40.373Z,31.42
2023-04-22T00:37:40.414Z,31.41
2023-04-22T00:38:40.415Z,31.43
2023-04-22T00:39:40.696Z,31.33
2023-04-22T00:40:40.449Z,31.24
2023-04-22T00:41:40.446Z,31.33
2023-04-22T00:42:40.466Z,31.34
2023-04-22T00:43:40.489Z,31.32
2023-04-22T00:44:40.455Z,31.34
2023-04-22T00:45:40.505Z,31.34
2023-04-22T00:46:40.528Z,31.35
2023-04-22T00:47:40.560Z,31.39
2023-04-22T00:48:40.536Z,31.39
2023-04-22T00:49:40.699Z,31.41
2023-04-22T00:50:40.579Z,31.41
2023-04-22T00:51:40.568Z,31.44
2023-04-22T00:52:40.601Z,31.41
2023-04-22T00:53:40.595Z,31.40
2023-04-22T00:54:40.579Z,31.33
2023-04-22T00:55:40.609Z,31.32
2023-04-22T00:56:40.639Z,31.38
2023-04-22T00:57:40.647Z,31.38
2023-04-22T00:58:40.644Z,31.39
2023-04-22T00:59:41.010Z,31.37
2023-04-22T01:00:40.743Z,31.40
2023-04-22T01:01:40.678Z,31.40
2023-04-22T01:02:40.878Z,31.40
2023-04-22T01:03:41.066Z,31.43
2023-04-22T01:04:40.723Z,31.39
2023-04-22T01:05:40.755Z,31.39
2023-04-22T01:06:40.794Z,31.38
2023-04-22T01:07:40.771Z,31.39
2023-04-22T01:08:40.780Z,31.35
2023-04-22T01:09:40.927Z,31.34
2023-04-22T01:10:40.821Z,31.34
2023-04-22T01:11:40.790Z,31.36
2023-04-22T01:12:40.796Z,31.35
2023-04-22T01:13:40.806Z,31.33
2023-04-22T01:14:40.829Z,31.35
2023-04-22T01:15:40.865Z,31.37
2023-04-22T01:16:40.944Z,31.38
2023-04-22T01:17:40.936Z,31.41
2023-04-22T01:18:40.923Z,31.41
2023-04-22T01:19:41.267Z,31.42
2023-04-22T01:20:40.932Z,31.41
2023-04-22T01:21:40.977Z,31.39
2023-04-22T01:22:40.959Z,31.41
2023-04-22T01:23:40.975Z,31.38
2023-04-22T01:24:40.967Z,31.37
2023-04-22T01:25:41.043Z,31.39
2023-04-22T01:26:41.033Z,31.38
2023-04-22T01:27:41.073Z,31.42
2023-04-22T01:28:41.072Z,31.43
2023-04-22T01:29:41.286Z,31.41
2023-04-22T01:30:41.081Z,31.41
2023-04-22T01:31:41.180Z,31.39
2023-04-22T01:32:41.272Z,31.38
2023-04-22T01:33:41.131Z,31.37
2023-04-22T01:34:41.145Z,31.38
2023-04-22T01:35:41.167Z,31.38
2023-04-22T01:36:41.169Z,31.38
2023-04-22T01:37:41.214Z,31.40
2023-04-22T01:38:41.231Z,31.39
2023-04-22T01:39:41.500Z,31.37
2023-04-22T01:40:41.277Z,31.40
2023-04-22T01:41:41.273Z,31.42
2023-04-22T01:42:41.282Z,31.39
2023-04-22T01:43:41.301Z,31.42
2023-04-22T01:44:41.297Z,31.40
2023-04-22T01:45:41.409Z,31.40
2023-04-22T01:46:41.340Z,31.43
2023-04-22T01:47:41.533Z,31.37
2023-04-22T01:48:41.410Z,31.39
2023-04-22T01:49:41.856Z,31.40
2023-04-22T01:50:41.464Z,31.40
2023-04-22T01:51:41.462Z,31.40
2023-04-22T01:52:41.472Z,31.40
2023-04-22T01:53:41.484Z,31.40
2023-04-22T01:54:41.522Z,31.40
2023-04-22T01:55:41.549Z,31.40
2023-04-22T01:56:41.546Z,31.41
2023-04-22T01:57:41.565Z,31.45
2023-04-22T01:58:41.622Z,31.40
2023-04-22T01:59:42.017Z,31.38
2023-04-22T02:00:41.620Z,31.36
2023-04-22T02:01:41.723Z,31.35
2023-04-22T02:02:41.758Z,31.36
2023-04-22T02:03:41.841Z,31.37
2023-04-22T02:04:41.777Z,31.40
2023-04-22T02:05:41.758Z,31.38
2023-04-22T02:06:41.757Z,31.44
2023-04-22T02:07:41.796Z,31.43
2023-04-22T02:08:41.793Z,31.39
2023-04-22T02:09:42.189Z,31.38
2023-04-22T02:10:41.828Z,31.37
2023-04-22T02:11:41.855Z,31.34
2023-04-22T02:12:41.882Z,31.28
2023-04-22T02:13:41.925Z,31.39
2023-04-22T02:14:41.940Z,31.42
2023-04-22T02:15:42.028Z,31.42
2023-04-22T02:16:41.985Z,31.42
2023-04-22T02:17:42.025Z,31.44
2023-04-22T02:18:42.035Z,31.44
2023-04-22T02:19:42.357Z,31.42
2023-04-22T02:20:42.075Z,31.42
2023-04-22T02:21:42.117Z,31.46
2023-04-22T02:22:42.104Z,31.46
2023-04-22T02:23:42.155Z,31.44
2023-04-22T02:24:42.168Z,31.45
2023-04-22T02:25:42.211Z,31.43
2023-04-22T02:26:42.226Z,31.47
2023-04-22T02:27:42.274Z,31.49
2023-04-22T02:28:42.294Z,31.31
2023-04-22T02:29:42.471Z,31.34
2023-04-22T02:30:42.326Z,31.39
2023-04-22T02:31:42.439Z,31.38
2023-04-22T02:32:42.507Z,31.31
2023-04-22T02:33:42.448Z,31.30
2023-04-22T02:34:42.465Z,31.32
2023-04-22T02:35:42.516Z,31.33
2023-04-22T02:36:42.545Z,31.41
2023-04-22T02:37:42.593Z,31.38
2023-04-22T02:38:42.641Z,31.41
2023-04-22T02:39:42.856Z,31.42
2023-04-22T02:40:42.701Z,31.37
2023-04-22T02:41:42.745Z,31.39
2023-04-22T02:42:42.751Z,31.38
2023-04-22T02:43:42.826Z,31.45
2023-04-22T02:44:42.820Z,31.45
2023-04-22T02:45:42.878Z,31.44
2023-04-22T02:46:42.955Z,31.41
2023-04-22T02:47:43.012Z,31.44
2023-04-22T02:48:42.948Z,31.47
2023-04-22T02:49:43.207Z,31.43
2023-04-22T02:50:43.052Z,31.37
2023-04-22T02:51:43.115Z,31.23
2023-04-22T02:52:43.143Z,31.32
2023-04-22T02:53:43.214Z,31.24
2023-04-22T02:54:43.254Z,31.28
2023-04-22T02:55:43.270Z,31.31
2023-04-22T02:56:43.304Z,31.28
2023-04-22T02:57:43.355Z,31.27
2023-04-22T02:58:43.408Z,31.37
2023-04-22T02:59:43.432Z,31.38
2023-04-22T03:00:43.576Z,31.40
2023-04-22T03:01:43.559Z,31.42
2023-04-22T03:02:43.688Z,31.42
2023-04-22T03:03:43.941Z,31.46
2023-04-22T03:04:43.680Z,31.45
2023-04-22T03:05:43.748Z,31.39
2023-04-22T03:06:43.739Z,31.42
2023-04-22T03:07:43.816Z,31.43
2023-04-22T03:08:43.840Z,31.40
2023-04-22T03:09:43.921Z,31.41
2023-04-22T03:10:43.957Z,31.43
2023-04-22T03:11:43.984Z,31.42
2023-04-22T03:12:44.006Z,31.41
2023-04-22T03:13:44.070Z,31.40
2023-04-22T03:14:44.081Z,31.41
2023-04-22T03:15:44.166Z,31.38
2023-04-22T03:16:44.213Z,31.38
2023-04-22T03:17:44.250Z,31.38
2023-04-22T03:18:44.250Z,31.38
2023-04-22T03:19:44.305Z,31.26
2023-04-22T03:20:44.342Z,31.12
2023-04-22T03:21:44.379Z,31.15
2023-04-22T03:22:44.441Z,31.24
2023-04-22T03:23:44.477Z,31.29
2023-04-22T03:24:44.502Z,31.31
2023-04-22T03:25:44.559Z,31.36
2023-04-22T03:26:44.608Z,31.34
2023-04-22T03:27:44.672Z,31.43
2023-04-22T03:28:44.734Z,31.33
2023-04-22T03:29:44.744Z,31.34
2023-04-22T03:30:44.810Z,31.36
2023-04-22T03:31:44.922Z,31.25
2023-04-22T03:32:44.951Z,31.24
2023-04-22T03:33:44.920Z,31.24
2023-04-22T03:34:44.993Z,31.14
2023-04-22T03:35:45.039Z,31.19
2023-04-22T03:36:45.092Z,31.13
2023-04-22T03:37:45.141Z,31.11
2023-04-22T03:38:45.186Z,31.14
2023-04-22T03:39:45.282Z,31.17
2023-04-22T03:40:45.327Z,31.11
2023-04-22T03:41:45.409Z,31.13
2023-04-22T03:42:45.452Z,31.15
2023-04-22T03:43:45.512Z,31.12
2023-04-22T03:44:45.545Z,31.14
2023-04-22T03:45:45.688Z,31.17
2023-04-22T03:46:45.672Z,31.14
2023-04-22T03:47:45.745Z,31.16
2023-04-22T03:48:45.778Z,31.15
2023-04-22T03:49:45.831Z,31.17
2023-04-22T03:50:45.879Z,31.15
2023-04-22T03:51:45.934Z,31.26
2023-04-22T03:52:45.975Z,31.17
2023-04-22T03:53:46.050Z,31.25
2023-04-22T03:54:46.090Z,31.22
2023-04-22T03:55:46.186Z,31.18
2023-04-22T03:56:46.289Z,31.23
2023-04-22T03:57:46.283Z,31.26
2023-04-22T03:58:46.353Z,31.21
2023-04-22T03:59:46.441Z,31.11
2023-04-22T04:00:46.481Z,31.13
2023-04-22T04:01:46.521Z,31.17
2023-04-22T04:02:46.868Z,31.10
2023-04-22T04:03:46.923Z,31.13
2023-04-22T04:04:47.170Z,31.08
2023-04-22T04:05:46.831Z,31.08
2023-04-22T04:06:46.859Z,31.18
2023-04-22T04:07:46.906Z,31.26
2023-04-22T04:08:46.958Z,31.30
2023-04-22T04:09:47.016Z,31.31
2023-04-22T04:10:47.049Z,31.33
2023-04-22T04:11:47.112Z,31.31
2023-04-22T04:12:47.205Z,31.30
2023-04-22T04:13:47.276Z,31.29
2023-04-22T04:14:47.289Z,31.32
2023-04-22T04:15:47.435Z,31.31
2023-04-22T04:16:47.413Z,31.32
2023-04-22T04:17:47.495Z,31.31
2023-04-22T04:18:47.497Z,31.30
2023-04-22T04:19:47.578Z,31.31
2023-04-22T04:20:47.628Z,31.30
2023-04-22T04:21:47.703Z,31.31
2023-04-22T04:22:47.736Z,31.28
2023-04-22T04:23:47.776Z,31.26
2023-04-22T04:24:47.847Z,31.30
2023-04-22T04:25:47.942Z,31.31
2023-04-22T04:26:47.999Z,31.27
2023-04-22T04:27:48.054Z,31.31
2023-04-22T04:28:48.075Z,31.35
2023-04-22T04:29:48.137Z,31.34
2023-04-22T04:30:48.254Z,31.33
2023-04-22T04:31:48.395Z,31.29
2023-04-22T04:32:48.402Z,31.30
2023-04-22T04:33:48.361Z,31.29
2023-04-22T04:34:48.436Z,31.32
2023-04-22T04:35:48.466Z,31.29
2023-04-22T04:36:48.530Z,31.31
2023-04-22T04:37:48.589Z,31.29
2023-04-22T04:38:48.624Z,31.31
2023-04-22T04:39:48.688Z,31.30
2023-04-22T04:40:48.742Z,31.32
2023-04-22T04:41:48.792Z,31.30
2023-04-22T04:42:48.896Z,31.31
2023-04-22T04:43:48.912Z,31.32
2023-04-22T04:44:48.971Z,31.30
2023-04-22T04:45:49.140Z,31.30
2023-04-22T04:46:49.138Z,31.29
2023-04-22T04:47:49.200Z,31.34
2023-04-22T04:48:49.167Z,31.31
2023-04-22T04:49:49.244Z,31.33
2023-04-22T04:50:49.303Z,31.22
2023-04-22T04:51:49.335Z,31.18
2023-04-22T04:52:49.612Z,31.22
2023-04-22T04:53:49.454Z,31.23
2023-04-22T04:54:49.491Z,31.25
2023-04-22T04:55:49.572Z,31.31
2023-04-22T04:56:49.644Z,31.34
2023-04-22T04:57:49.695Z,31.35
2023-04-22T04:58:49.762Z,31.34
2023-04-22T04:59:49.813Z,31.35
2023-04-22T05:00:49.871Z,31.36
2023-04-22T05:01:49.951Z,31.34
2023-04-22T05:02:50.138Z,31.34
2023-04-22T05:03:50.200Z,31.24
2023-04-22T05:04:50.192Z,31.29
2023-04-22T05:05:50.163Z,31.35
2023-04-22T05:06:50.215Z,31.34
2023-04-22T05:07:50.279Z,31.29
2023-04-22T05:08:50.315Z,31.28
2023-04-22T05:09:50.413Z,31.29
2023-04-22T05:10:50.442Z,31.29
2023-04-22T05:11:51.063Z,31.26
2023-04-22T05:12:50.539Z,31.22
2023-04-22T05:13:50.598Z,31.16
2023-04-22T05:14:50.677Z,31.17
2023-04-22T05:15:50.745Z,31.13
2023-04-22T05:16:50.903Z,31.19
2023-04-22T05:17:50.832Z,31.14
2023-04-22T05:18:50.902Z,31.10
2023-04-22T05:19:50.941Z,30.98
2023-04-22T05:20:51.041Z,31.03
2023-04-22T05:21:51.094Z,31.03
2023-04-22T05:22:51.104Z,31.04
2023-04-22T05:23:51.216Z,31.05
2023-04-22T05:24:51.233Z,31.05
2023-04-22T05:25:53.286Z,31.02
2023-04-22T05:26:51.342Z,31.00
2023-04-22T05:27:51.402Z,30.96
2023-04-22T05:28:51.474Z,30.96
2023-04-22T05:29:51.548Z,30.97
2023-04-22T05:30:51.584Z,30.97
2023-04-22T05:31:51.697Z,30.98
2023-04-22T05:32:51.692Z,30.96
2023-04-22T05:33:51.778Z,30.90
2023-04-22T05:34:51.814Z,30.86
2023-04-22T05:35:51.859Z,30.88
2023-04-22T05:36:51.908Z,30.86
2023-04-22T05:37:51.989Z,30.88
2023-04-22T05:38:52.028Z,30.82
2023-04-22T05:39:52.067Z,30.81
2023-04-22T05:40:52.140Z,30.85
2023-04-22T05:41:52.193Z,30.81
2023-04-22T05:42:52.212Z,30.82
2023-04-22T05:43:52.292Z,30.83
2023-04-22T05:44:52.367Z,30.83
2023-04-22T05:45:52.437Z,30.84
2023-04-22T05:46:52.480Z,30.85
2023-04-22T05:47:52.533Z,30.78
2023-04-22T05:48:52.567Z,30.77
2023-04-22T05:49:52.644Z,30.83
2023-04-22T05:50:52.708Z,30.78
2023-04-22T05:51:52.738Z,30.74
2023-04-22T05:52:52.810Z,30.75
2023-04-22T05:53:52.850Z,30.80
2023-04-22T05:54:52.909Z,30.72
2023-04-22T05:55:52.968Z,30.64
2023-04-22T05:56:53.020Z,30.62
2023-04-22T05:57:53.073Z,30.60
2023-04-22T05:58:53.106Z,30.55
2023-04-22T05:59:53.174Z,30.58
2023-04-22T06:00:53.240Z,30.56
2023-04-22T06:01:53.311Z,30.62
2023-04-22T06:02:53.452Z,30.66
2023-04-22T06:03:53.559Z,30.70
2023-04-22T06:04:53.656Z,30.78
2023-04-22T06:05:53.540Z,30.89
2023-04-22T06:06:53.552Z,30.90
2023-04-22T06:07:53.598Z,30.90
2023-04-22T06:08:53.673Z,30.83
2023-04-22T06:10:02.141Z,30.79
2023-04-22T06:10:54.725Z,30.80
2023-04-22T06:11:53.697Z,30.76
2023-04-22T06:12:53.706Z,30.70
2023-04-22T06:13:53.702Z,30.72
2023-04-22T06:14:53.683Z,30.68
2023-04-22T06:15:53.683Z,30.69
2023-04-22T06:16:53.651Z,30.62
2023-04-22T06:17:53.699Z,30.62
2023-04-22T06:18:53.625Z,30.61
2023-04-22T06:19:53.721Z,30.60
2023-04-22T06:20:53.756Z,30.64
2023-04-22T06:21:53.762Z,30.65
2023-04-22T06:22:53.874Z,30.61
2023-04-22T06:23:53.880Z,30.60
2023-04-22T06:24:53.934Z,30.60
2023-04-22T06:25:53.985Z,30.60
2023-04-22T06:26:54.054Z,30.60
2023-04-22T06:27:54.113Z,30.61
2023-04-22T06:28:54.133Z,30.62
2023-04-22T06:29:54.216Z,30.67
2023-04-22T06:30:54.283Z,30.64
2023-04-22T06:31:54.335Z,30.71
2023-04-22T06:32:54.353Z,30.76
2023-04-22T06:33:54.414Z,30.78
2023-04-22T06:34:54.476Z,30.79
2023-04-22T06:35:54.532Z,30.82
2023-04-22T06:36:54.554Z,30.76
2023-04-22T06:37:54.619Z,30.77
2023-04-22T06:38:54.689Z,30.80
2023-04-22T06:39:54.759Z,30.78
2023-04-22T06:40:54.791Z,30.73
2023-04-22T06:41:54.847Z,30.78
2023-04-22T06:42:54.907Z,30.72
2023-04-22T06:43:54.969Z,30.67
2023-04-22T06:44:55.063Z,30.66
2023-04-22T06:45:55.051Z,30.66
2023-04-22T06:46:56.585Z,30.64
2023-04-22T06:47:55.118Z,30.66
2023-04-22T06:48:55.075Z,30.57
2023-04-22T06:49:55.068Z,30.60
2023-04-22T06:50:55.079Z,30.58
2023-04-22T06:51:55.061Z,30.58
2023-04-22T06:52:55.045Z,30.60
2023-04-22T06:53:55.052Z,30.55
2023-04-22T06:54:55.056Z,30.53
2023-04-22T06:55:55.052Z,30.55
2023-04-22T06:56:55.026Z,30.57
2023-04-22T06:57:55.017Z,30.53
2023-04-22T06:58:55.012Z,30.62
2023-04-22T06:59:55.010Z,30.62
2023-04-22T07:00:55.019Z,30.73
2023-04-22T07:01:55.036Z,30.72
2023-04-22T07:02:55.163Z,30.74
2023-04-22T07:03:55.010Z,30.62
2023-04-22T07:04:54.971Z,30.67
2023-04-22T07:05:54.971Z,30.64
2023-04-22T07:06:54.955Z,30.60
2023-04-22T07:07:54.913Z,30.61
2023-04-22T07:08:54.922Z,30.61
2023-04-22T07:09:54.952Z,30.53
2023-04-22T07:10:54.922Z,30.55
2023-04-22T07:11:54.917Z,30.51
2023-04-22T07:12:54.900Z,30.49
2023-04-22T07:13:54.883Z,30.46
2023-04-22T07:14:54.889Z,30.48
2023-04-22T07:15:54.924Z,30.45
2023-04-22T07:16:55.005Z,30.43
2023-04-22T07:17:54.932Z,30.42
2023-04-22T07:18:54.860Z,30.39
2023-04-22T07:19:54.865Z,30.40
2023-04-22T07:20:54.829Z,30.44
2023-04-22T07:21:54.842Z,30.44
2023-04-22T07:22:54.829Z,30.45
2023-04-22T07:23:54.806Z,30.43
2023-04-22T07:24:54.864Z,30.44
2023-04-22T07:25:54.815Z,30.47
2023-04-22T07:26:54.798Z,30.47
2023-04-22T07:27:54.791Z,30.47
2023-04-22T07:28:54.788Z,30.46
2023-04-22T07:29:54.804Z,30.45
2023-04-22T07:30:54.867Z,30.45
2023-04-22T07:31:54.925Z,30.45
2023-04-22T07:32:55.027Z,30.45
2023-04-22T07:33:55.046Z,30.41
2023-04-22T07:34:55.107Z,30.37
2023-04-22T07:35:55.132Z,30.32
2023-04-22T07:36:55.217Z,30.36
2023-04-22T07:37:55.232Z,30.36
2023-04-22T07:38:55.300Z,30.34
2023-04-22T07:39:55.347Z,30.34
2023-04-22T07:40:55.414Z,30.34
2023-04-22T07:41:55.451Z,30.32
2023-04-22T07:42:55.534Z,30.30
2023-04-22T07:43:55.563Z,30.33
2023-04-22T07:44:55.596Z,30.37
2023-04-22T07:45:55.726Z,30.28
2023-04-22T07:46:55.740Z,30.28
2023-04-22T07:47:55.812Z,30.26
2023-04-22T07:48:55.836Z,30.27
2023-04-22T07:49:55.934Z,30.27
2023-04-22T07:50:56.000Z,30.24
2023-04-22T07:51:56.033Z,30.24
2023-04-22T07:52:56.083Z,30.26
2023-04-22T07:53:56.119Z,30.19
2023-04-22T07:54:56.181Z,30.20
2023-04-22T07:55:56.243Z,30.24
2023-04-22T07:56:56.266Z,30.24
2023-04-22T07:57:56.327Z,30.20
2023-04-22T07:58:56.394Z,30.20
2023-04-22T07:59:56.465Z,30.23
2023-04-22T08:00:56.526Z,30.31
2023-04-22T08:01:56.588Z,30.26
2023-04-22T08:02:56.708Z,30.26
2023-04-22T08:03:56.907Z,30.26
2023-04-22T08:04:56.755Z,30.26
2023-04-22T08:05:56.832Z,30.25
2023-04-22T08:06:56.834Z,30.24
2023-04-22T08:07:56.913Z,30.24
2023-04-22T08:08:56.958Z,30.29
2023-04-22T08:09:57.017Z,30.29
2023-04-22T08:10:57.083Z,30.24
2023-04-22T08:11:57.113Z,30.24
2023-04-22T08:12:57.173Z,30.28
2023-04-22T08:13:57.243Z,30.26
2023-04-22T08:14:57.283Z,30.27
2023-04-22T08:15:57.345Z,30.25
2023-04-22T08:16:57.373Z,30.28
2023-04-22T08:17:57.451Z,30.23
2023-04-22T08:18:57.498Z,30.25
2023-04-22T08:19:57.549Z,30.21
2023-04-22T08:20:57.597Z,30.20
2023-04-22T08:21:57.647Z,30.24
2023-04-22T08:22:57.693Z,30.26
2023-04-22T08:23:57.735Z,30.30
2023-04-22T08:24:57.776Z,30.38
2023-04-22T08:25:57.824Z,30.32
2023-04-22T08:26:57.893Z,30.26
2023-04-22T08:27:57.924Z,30.32
2023-04-22T08:28:58.007Z,30.31
2023-04-22T08:29:58.029Z,30.24
2023-04-22T08:30:58.098Z,30.20
2023-04-22T08:31:58.140Z,30.17
2023-04-22T08:32:58.231Z,30.20
2023-04-22T08:33:58.200Z,30.16
2023-04-22T08:35:04.399Z,30.14
2023-04-22T08:35:59.281Z,30.20
2023-04-22T08:36:58.260Z,30.23
2023-04-22T08:37:58.240Z,30.27
2023-04-22T08:38:58.256Z,30.35
2023-04-22T08:39:58.236Z,30.27
2023-04-22T08:40:58.234Z,30.30
2023-04-22T08:41:58.236Z,30.28
2023-04-22T08:42:58.245Z,30.27
2023-04-22T08:43:59.166Z,30.34
2023-04-22T08:44:58.193Z,30.33
2023-04-22T08:45:58.215Z,30.25
2023-04-22T08:46:58.373Z,30.17
2023-04-22T08:47:58.288Z,30.24
2023-04-22T08:48:58.314Z,30.19
2023-04-22T08:49:58.392Z,30.33
2023-04-22T08:50:58.430Z,30.33
2023-04-22T08:51:58.448Z,30.27
2023-04-22T08:52:58.496Z,30.29
2023-04-22T08:53:58.523Z,30.30
2023-04-22T08:54:58.582Z,30.35
2023-04-22T08:55:58.654Z,30.56
2023-04-22T08:56:58.697Z,30.47
2023-04-22T08:57:58.710Z,30.59
2023-04-22T08:58:58.761Z,30.36
2023-04-22T08:59:58.807Z,30.60
2023-04-22T09:00:58.815Z,30.83
2023-04-22T09:01:58.911Z,30.87
2023-04-22T09:02:59.007Z,30.44
2023-04-22T09:03:59.095Z,30.53
2023-04-22T09:04:59.033Z,30.37
2023-04-22T09:05:59.046Z,30.33
2023-04-22T09:06:59.079Z,30.37
2023-04-22T09:07:59.139Z,30.77
2023-04-22T09:08:59.158Z,30.50
2023-04-22T09:09:59.246Z,30.56
2023-04-22T09:10:59.242Z,30.51
2023-04-22T09:11:59.289Z,30.73
2023-04-22T09:12:59.319Z,30.43
2023-04-22T09:13:59.372Z,30.25
2023-04-22T09:14:59.435Z,30.33
2023-04-22T09:16:00.168Z,30.59
2023-04-22T09:16:59.507Z,30.38
2023-04-22T09:17:59.557Z,30.30
2023-04-22T09:18:59.584Z,30.32
2023-04-22T09:19:59.620Z,30.31
2023-04-22T09:20:59.688Z,30.30
2023-04-22T09:21:59.699Z,30.27
2023-04-22T09:22:59.758Z,30.31
2023-04-22T09:23:59.777Z,30.18
2023-04-22T09:24:59.837Z,30.25
2023-04-22T09:25:59.892Z,30.41
2023-04-22T09:26:59.898Z,30.25
2023-04-22T09:27:59.947Z,30.40
2023-04-22T09:28:59.996Z,30.42
2023-04-22T09:30:00.037Z,30.14
2023-04-22T09:31:00.067Z,30.08
2023-04-22T09:32:00.174Z,30.15
2023-04-22T09:33:00.234Z,30.41
2023-04-22T09:34:00.186Z,30.29
2023-04-22T09:35:00.233Z,30.05
2023-04-22T09:36:00.282Z,30.27
2023-04-22T09:37:00.368Z,30.16
2023-04-22T09:38:00.355Z,30.03
2023-04-22T09:39:00.375Z,30.10
2023-04-22T09:40:00.381Z,30.78
2023-04-22T09:41:00.437Z,30.55
2023-04-22T09:42:00.583Z,30.60
2023-04-22T09:43:00.535Z,30.52
2023-04-22T09:44:00.524Z,30.60
2023-04-22T09:45:01.847Z,30.62
2023-04-22T09:46:00.673Z,30.34
2023-04-22T09:47:00.682Z,30.42
2023-04-22T09:48:00.752Z,30.37
2023-04-22T09:49:00.777Z,30.39
2023-04-22T09:50:00.746Z,30.54
2023-04-22T09:51:00.781Z,30.55
2023-04-22T09:52:00.818Z,30.68
2023-04-22T09:53:00.874Z,30.54
2023-04-22T09:54:00.945Z,30.24
2023-04-22T09:55:00.941Z,30.27
2023-04-22T09:56:00.976Z,30.01
2023-04-22T09:57:01.022Z,30.03
2023-04-22T09:58:01.059Z,29.85
2023-04-22T09:59:01.103Z,29.85
2023-04-22T10:00:01.087Z,30.00
2023-04-22T10:01:01.169Z,30.20
2023-04-22T10:02:01.161Z,30.02
2023-04-22T10:03:01.276Z,30.28
2023-04-22T10:04:01.288Z,30.23
2023-04-22T10:05:01.249Z,30.21
2023-04-22T10:06:01.290Z,30.56
2023-04-22T10:07:01.322Z,30.22
2023-04-22T10:08:01.405Z,30.32
2023-04-22T10:09:01.384Z,30.45
2023-04-22T10:10:01.460Z,30.52
2023-04-22T10:11:01.486Z,30.37
2023-04-22T10:12:01.551Z,30.43
2023-04-22T10:13:01.501Z,30.08
2023-04-22T10:14:01.540Z,30.27
2023-04-22T10:15:01.570Z,30.32
2023-04-22T10:16:01.586Z,30.17
2023-04-22T10:17:01.676Z,30.34
2023-04-22T10:18:01.737Z,30.04
2023-04-22T10:19:01.658Z,30.21
2023-04-22T10:20:01.686Z,30.36
2023-04-22T10:21:01.825Z,29.99
2023-04-22T10:22:01.717Z,30.42
2023-04-22T10:23:01.759Z,30.59
2023-04-22T10:24:01.763Z,30.13
2023-04-22T10:25:01.812Z,29.94
2023-04-22T10:26:01.844Z,30.09
2023-04-22T10:27:01.858Z,30.01
2023-04-22T10:28:01.855Z,29.89
2023-04-22T10:29:01.870Z,29.85
2023-04-22T10:30:01.914Z,29.78
2023-04-22T10:31:01.964Z,29.84
2023-04-22T10:32:01.945Z,29.78
2023-04-22T10:33:02.031Z,29.77
2023-04-22T10:34:01.990Z,29.74
2023-04-22T10:35:01.982Z,29.77
2023-04-22T10:36:02.027Z,29.77
2023-04-22T10:37:02.030Z,29.78
2023-04-22T10:38:02.075Z,29.75
2023-04-22T10:39:02.082Z,29.74
2023-04-22T10:40:02.120Z,29.75
2023-04-22T10:41:02.109Z,29.73
2023-04-22T10:42:02.119Z,29.70
2023-04-22T10:43:02.140Z,29.72
2023-04-22T10:44:02.127Z,29.74
2023-04-22T10:45:02.218Z,29.76
2023-04-22T10:46:02.209Z,29.75
2023-04-22T10:47:02.191Z,29.76
2023-04-22T10:48:02.247Z,29.80
2023-04-22T10:49:02.254Z,29.89
2023-04-22T10:50:02.281Z,30.03
2023-04-22T10:51:02.295Z,30.57
2023-04-22T10:52:02.337Z,30.53
2023-04-22T10:53:02.331Z,30.86
2023-04-22T10:54:02.446Z,30.46
2023-04-22T10:55:02.385Z,30.11
2023-04-22T10:56:02.406Z,30.02
2023-04-22T10:57:02.412Z,29.88
2023-04-22T10:58:02.436Z,29.73
2023-04-22T10:59:02.461Z,29.73
2023-04-22T11:00:02.485Z,29.69
2023-04-22T11:01:02.513Z,29.68
2023-04-22T11:02:02.487Z,29.73
2023-04-22T11:03:02.640Z,29.79
2023-04-22T11:04:02.583Z,29.82
2023-04-22T11:05:02.551Z,29.93
2023-04-22T11:06:02.608Z,30.01
2023-04-22T11:07:02.579Z,30.05
2023-04-22T11:08:02.619Z,29.96
2023-04-22T11:09:02.708Z,29.94
2023-04-22T11:10:02.677Z,29.89
2023-04-22T11:11:02.645Z,29.77
2023-04-22T11:12:02.697Z,29.75
2023-04-22T11:13:02.696Z,29.74
2023-04-22T11:14:02.721Z,29.72
2023-04-22T11:15:02.724Z,29.67
2023-04-22T11:16:02.829Z,29.68
2023-04-22T11:17:02.756Z,29.63
2023-04-22T11:18:02.785Z,29.64
2023-04-22T11:19:02.798Z,29.65
2023-04-22T11:20:02.814Z,29.63
2023-04-22T11:21:02.885Z,29.62
2023-04-22T11:22:02.844Z,29.61
2023-04-22T11:23:02.877Z,29.60
2023-04-22T11:24:02.889Z,29.62
2023-04-22T11:25:02.886Z,29.63
2023-04-22T11:26:02.955Z,29.54
2023-04-22T11:27:02.922Z,29.57
2023-04-22T11:28:02.923Z,29.55
2023-04-22T11:29:02.943Z,29.57
2023-04-22T11:30:02.980Z,29.59
2023-04-22T11:31:02.999Z,29.58
2023-04-22T11:32:02.989Z,29.57
2023-04-22T11:33:03.038Z,29.54
2023-04-22T11:34:03.003Z,29.54
2023-04-22T11:35:03.002Z,29.51
2023-04-22T11:36:03.034Z,29.47
2023-04-22T11:37:03.047Z,29.49
2023-04-22T11:38:03.038Z,29.47
2023-04-22T11:39:03.045Z,29.47
2023-04-22T11:40:21.632Z,29.44
2023-04-22T11:41:04.045Z,29.45
2023-04-22T11:42:03.062Z,29.42
2023-04-22T11:43:03.028Z,29.45
2023-04-22T11:44:03.038Z,29.44
2023-04-22T11:45:03.051Z,29.45
2023-04-22T11:46:03.111Z,29.39
2023-04-22T11:47:02.996Z,29.34
2023-04-22T11:48:02.998Z,29.33
2023-04-22T11:49:02.993Z,29.32
2023-04-22T11:50:02.960Z,29.34
2023-04-22T11:51:02.964Z,29.31
2023-04-22T11:52:02.978Z,29.31
2023-04-22T11:53:02.962Z,29.39
2023-04-22T11:54:02.925Z,29.37
2023-04-22T11:55:02.946Z,29.32
2023-04-22T11:56:02.926Z,29.32
2023-04-22T11:57:03.242Z,29.30
2023-04-22T11:58:02.917Z,29.27
2023-04-22T11:59:02.914Z,29.25
2023-04-22T12:00:02.882Z,29.22
2023-04-22T12:01:02.900Z,29.25
2023-04-22T12:02:02.922Z,29.20
2023-04-22T12:03:02.994Z,29.29
2023-04-22T12:04:02.996Z,29.20
2023-04-22T12:05:02.894Z,29.17
2023-04-22T12:06:02.903Z,29.24
2023-04-22T12:07:02.843Z,29.24
2023-04-22T12:08:02.848Z,29.18
2023-04-22T12:09:02.831Z,29.18
2023-04-22T12:10:02.826Z,29.18
2023-04-22T12:11:02.790Z,29.17
2023-04-22T12:12:02.814Z,29.22
2023-04-22T12:13:02.822Z,29.18
2023-04-22T12:14:02.824Z,29.10
2023-04-22T12:15:02.810Z,29.14
2023-04-22T12:16:02.768Z,29.14
2023-04-22T12:17:02.862Z,29.15
2023-04-22T12:18:02.770Z,29.12
2023-04-22T12:19:02.796Z,29.08
2023-04-22T12:20:02.757Z,29.05
2023-04-22T12:21:02.737Z,29.05
2023-04-22T12:22:02.732Z,28.97
2023-04-22T12:23:02.704Z,28.97
2023-04-22T12:24:02.718Z,28.94
2023-04-22T12:25:02.718Z,28.92
2023-04-22T12:26:02.700Z,28.87
2023-04-22T12:27:02.710Z,28.85
2023-04-22T12:28:02.711Z,28.86
2023-04-22T12:29:02.667Z,28.93
2023-04-22T12:30:02.671Z,28.89
2023-04-22T12:31:02.708Z,28.95
2023-04-22T12:32:02.687Z,28.82
2023-04-22T12:33:02.648Z,28.75
2023-04-22T12:34:02.705Z,28.75
2023-04-22T12:35:02.650Z,28.65
2023-04-22T12:36:02.643Z,28.61
2023-04-22T12:37:02.619Z,28.67
2023-04-22T12:38:02.620Z,28.57
2023-04-22T12:39:02.695Z,28.61
2023-04-22T12:40:02.645Z,28.63
2023-04-22T12:41:02.709Z,28.53
2023-04-22T12:42:02.770Z,28.54
2023-04-22T12:43:02.848Z,28.47
2023-04-22T12:44:02.899Z,28.50
2023-04-22T12:45:02.922Z,28.42
2023-04-22T12:46:03.058Z,28.45
2023-04-22T12:47:03.073Z,28.39
2023-04-22T12:48:03.140Z,28.39
2023-04-22T12:49:03.205Z,28.47
2023-04-22T12:50:03.245Z,28.29
2023-04-22T12:51:03.329Z,28.26
2023-04-22T12:52:03.385Z,28.53
2023-04-22T12:53:03.456Z,28.51